sensor_id;sensor_type;location;lat;lon;timestamp;pressure;altitude;pressure_sealevel;temperature
49557;BMP280;35462;45.048;7.666;2023-08-20T00:14:57;99206.97;;;30.83
49557;BMP280;35462;45.048;7.666;2023-08-20T00:30:17;99198.72;;;30.76
49557;BMP280;35462;45.048;7.666;2023-08-20T00:45:39;99198.28;;;30.72
49557;BMP280;35462;45.048;7.666;2023-08-20T01:00:59;99198.97;;;30.65
49557;BMP280;35462;45.048;7.666;2023-08-20T01:16:18;99201.59;;;30.50
49557;BMP280;35462;45.048;7.666;2023-08-20T01:31:38;99203.00;;;30.44
49557;BMP280;35462;45.048;7.666;2023-08-20T01:46:59;99220.59;;;30.35
49557;BMP280;35462;45.048;7.666;2023-08-20T02:02:22;99230.19;;;30.29
49557;BMP280;35462;45.048;7.666;2023-08-20T02:17:41;99235.97;;;30.25
49557;BMP280;35462;45.048;7.666;2023-08-20T02:33:01;99235.16;;;30.17
49557;BMP280;35462;45.048;7.666;2023-08-20T02:48:21;99234.56;;;30.11
49557;BMP280;35462;45.048;7.666;2023-08-20T03:03:41;99233.53;;;30.01
49557;BMP280;35462;45.048;7.666;2023-08-20T03:19:01;99229.34;;;29.88
49557;BMP280;35462;45.048;7.666;2023-08-20T03:34:22;99237.28;;;29.78
49557;BMP280;35462;45.048;7.666;2023-08-20T03:49:43;99240.09;;;29.73
49557;BMP280;35462;45.048;7.666;2023-08-20T04:05:03;99244.22;;;29.66
49557;BMP280;35462;45.048;7.666;2023-08-20T04:20:23;99253.56;;;29.58
49557;BMP280;35462;45.048;7.666;2023-08-20T04:35:43;99271.84;;;29.50
49557;BMP280;35462;45.048;7.666;2023-08-20T04:51:02;99271.59;;;29.35
49557;BMP280;35462;45.048;7.666;2023-08-20T05:06:23;99293.84;;;29.26
49557;BMP280;35462;45.048;7.666;2023-08-20T05:21:44;99302.78;;;29.27
49557;BMP280;35462;45.048;7.666;2023-08-20T05:37:04;99303.19;;;29.31
49557;BMP280;35462;45.048;7.666;2023-08-20T05:52:25;99314.91;;;29.57
49557;BMP280;35462;45.048;7.666;2023-08-20T06:07:45;99328.91;;;29.92
49557;BMP280;35462;45.048;7.666;2023-08-20T06:23:04;99336.63;;;30.60
49557;BMP280;35462;45.048;7.666;2023-08-20T06:38:24;99336.22;;;32.00
49557;BMP280;35462;45.048;7.666;2023-08-20T06:53:43;99338.59;;;34.60
49557;BMP280;35462;45.048;7.666;2023-08-20T07:09:03;99348.72;;;35.56
49557;BMP280;35462;45.048;7.666;2023-08-20T07:24:23;99350.44;;;34.94
49557;BMP280;35462;45.048;7.666;2023-08-20T07:39:45;99352.00;;;35.04
49557;BMP280;35462;45.048;7.666;2023-08-20T07:55:04;99356.16;;;35.46
49557;BMP280;35462;45.048;7.666;2023-08-20T08:10:24;99369.53;;;35.83
49557;BMP280;35462;45.048;7.666;2023-08-20T08:25:43;99358.09;;;36.13
49557;BMP280;35462;45.048;7.666;2023-08-20T08:41:12;99352.16;;;36.17
49557;BMP280;35462;45.048;7.666;2023-08-20T08:56:32;99350.16;;;36.00
49557;BMP280;35462;45.048;7.666;2023-08-20T09:11:51;99340.06;;;36.12
49557;BMP280;35462;45.048;7.666;2023-08-20T09:27:14;99326.00;;;35.91
49557;BMP280;35462;45.048;7.666;2023-08-20T09:42:34;99320.41;;;35.73
49557;BMP280;35462;45.048;7.666;2023-08-20T09:57:53;99302.56;;;35.57
49557;BMP280;35462;45.048;7.666;2023-08-20T10:13:13;99299.16;;;35.49
49557;BMP280;35462;45.048;7.666;2023-08-20T10:28:34;99292.03;;;35.46
49557;BMP280;35462;45.048;7.666;2023-08-20T10:43:57;99281.31;;;35.50
49557;BMP280;35462;45.048;7.666;2023-08-20T10:59:28;99256.59;;;35.42
49557;BMP280;35462;45.048;7.666;2023-08-20T11:14:51;99241.41;;;35.51
49557;BMP280;35462;45.048;7.666;2023-08-20T11:30:11;99223.66;;;35.44
49557;BMP280;35462;45.048;7.666;2023-08-20T11:45:44;99206.91;;;35.33
49557;BMP280;35462;45.048;7.666;2023-08-20T12:01:07;99181.94;;;35.31
49557;BMP280;35462;45.048;7.666;2023-08-20T12:16:28;99179.97;;;35.41
49557;BMP280;35462;45.048;7.666;2023-08-20T12:31:47;99169.63;;;35.32
49557;BMP280;35462;45.048;7.666;2023-08-20T12:47:07;99154.13;;;35.36
49557;BMP280;35462;45.048;7.666;2023-08-20T13:02:27;99136.41;;;35.30
49557;BMP280;35462;45.048;7.666;2023-08-20T13:17:48;99130.28;;;35.32
49557;BMP280;35462;45.048;7.666;2023-08-20T13:33:08;99115.78;;;35.31
49557;BMP280;35462;45.048;7.666;2023-08-20T13:48:27;99111.44;;;35.28
49557;BMP280;35462;45.048;7.666;2023-08-20T14:03:47;99100.41;;;35.28
49557;BMP280;35462;45.048;7.666;2023-08-20T14:19:06;99090.81;;;35.29
49557;BMP280;35462;45.048;7.666;2023-08-20T14:34:26;99085.47;;;35.31
49557;BMP280;35462;45.048;7.666;2023-08-20T14:49:46;99069.19;;;35.26
49557;BMP280;35462;45.048;7.666;2023-08-20T15:05:05;99068.16;;;35.21
49557;BMP280;35462;45.048;7.666;2023-08-20T15:20:25;99047.25;;;35.18
49557;BMP280;35462;45.048;7.666;2023-08-20T15:35:46;99049.53;;;35.12
49557;BMP280;35462;45.048;7.666;2023-08-20T15:51:05;99063.16;;;35.10
49557;BMP280;35462;45.048;7.666;2023-08-20T16:06:25;99066.59;;;35.01
49557;BMP280;35462;45.048;7.666;2023-08-20T16:21:45;99068.47;;;34.99
49557;BMP280;35462;45.048;7.666;2023-08-20T16:37:04;99067.28;;;34.92
49557;BMP280;35462;45.048;7.666;2023-08-20T16:52:24;99060.16;;;34.89
49557;BMP280;35462;45.048;7.666;2023-08-20T17:07:44;99073.44;;;34.84
49557;BMP280;35462;45.048;7.666;2023-08-20T17:23:03;99079.78;;;34.77
49557;BMP280;35462;45.048;7.666;2023-08-20T17:38:23;99090.00;;;34.67
49557;BMP280;35462;45.048;7.666;2023-08-20T17:53:42;99086.28;;;34.55
49557;BMP280;35462;45.048;7.666;2023-08-20T18:09:02;99099.41;;;34.47
49557;BMP280;35462;45.048;7.666;2023-08-20T18:24:22;99106.50;;;34.33
49557;BMP280;35462;45.048;7.666;2023-08-20T18:39:41;99131.00;;;34.22
49557;BMP280;35462;45.048;7.666;2023-08-20T18:55:01;99157.13;;;34.13
49557;BMP280;35462;45.048;7.666;2023-08-20T19:10:20;99186.53;;;34.03
49557;BMP280;35462;45.048;7.666;2023-08-20T19:25:40;99211.00;;;33.92
49557;BMP280;35462;45.048;7.666;2023-08-20T19:41:00;99238.94;;;33.81
49557;BMP280;35462;45.048;7.666;2023-08-20T19:56:19;99252.94;;;33.68
49557;BMP280;35462;45.048;7.666;2023-08-20T20:11:39;99269.47;;;33.61
49557;BMP280;35462;45.048;7.666;2023-08-20T20:26:58;99294.75;;;33.52
49557;BMP280;35462;45.048;7.666;2023-08-20T20:42:21;99315.50;;;33.38
49557;BMP280;35462;45.048;7.666;2023-08-20T20:57:40;99333.47;;;33.24
49557;BMP280;35462;45.048;7.666;2023-08-20T21:13:00;99349.81;;;33.07
49557;BMP280;35462;45.048;7.666;2023-08-20T21:28:21;99369.19;;;32.87
49557;BMP280;35462;45.048;7.666;2023-08-20T21:43:41;99391.88;;;32.73
49557;BMP280;35462;45.048;7.666;2023-08-20T21:59:04;99393.34;;;32.66
49557;BMP280;35462;45.048;7.666;2023-08-20T22:14:24;99406.66;;;32.55
49557;BMP280;35462;45.048;7.666;2023-08-20T22:29:43;99426.53;;;32.33
49557;BMP280;35462;45.048;7.666;2023-08-20T22:45:03;99432.97;;;32.08
49557;BMP280;35462;45.048;7.666;2023-08-20T23:00:23;99439.31;;;31.96
49557;BMP280;35462;45.048;7.666;2023-08-20T23:15:42;99427.25;;;31.99
49557;BMP280;35462;45.048;7.666;2023-08-20T23:31:06;99443.09;;;31.93
49557;BMP280;35462;45.048;7.666;2023-08-20T23:46:26;99442.31;;;31.85
